SOKO Leipzig SOKO Leipzig
Melanie Marschke es Ina Zimmermann
» Estado: En emisión
» País: (Germany) Germany
» Cadena: ZDF
» Temporadas: 19
» Hora de emisión: 21:15
» Duración: 45
» Huso horario: Europe/Busingen
» Comenzó: Miércoles 31 de enero de 2001
» Finalizada: No
» Clasificación: Cinematográfica
» Géneros: Drama

Temporadas con sus episodios

Elenco de actores
Intérprete Personaje
Melanie Marschke

Ina Zimmermann
Andreas Schmidt Schaller

Hajo Trautzschke
Steffen Schroeder

Tom Kowalski
Daniel Steiner

Lorenz Rettig
Nilam Farooq

Olivia Fareedi
Anna Stieblich

Sabine Rossi
Caroline Scholze

Leni Trautzschke
Michael Rotschopf

Alexander Binz
Maximilian Klas

Benni Maybach
Michael Brandner

Manfred Woernle
Gabriel Merz

Miguel Alvarez
Anne Arzenbacher

Meike Schwarz
Pablo Sprungala

Vincent Becker
Margrit Sartorius

Kathrin Conradi
Tyron Ricketts

Patrick Diego Grimm
Silke Heise

Sandra Schönfeld
Temporada n°1
Episodio n° Título Temporada x Episodio Fecha emisión (año-mes-día)
1 Flucht nach Fahrplan 1 x 1 2001-01-31
2 Taximorde 1 x 2 2001-02-07
3 Brandnarben 1 x 3 2001-02-14
4 Bombenspiel 1 x 4 2001-02-21
5 Wilde Triebe 1 x 5 2001-02-28
6 Bennis Entführung 1 x 6 2001-03-07
7 Abschied für immer 1 x 7 2001-03-14
8 Todesflug 1 x 8 2001-03-21
9 Liebesdienste 1 x 9 2001-03-28
10 Tod im Internat 1 x 10 2001-04-04
11 Der letzte Blues 1 x 11 2001-04-11
12 Börsenfieber 1 x 12 2001-04-18
Temporada n°2
Episodio n° Título Temporada x Episodio Fecha emisión (año-mes-día)
1 Der Lockvogel 2 x 1 2002-01-23
2 Irrwege 2 x 2 2002-01-30
3 Dickes Blut 2 x 3 2002-02-06
4 Alte Freunde 2 x 4 2002-02-13
5 Mädchen 2 x 5 2002-02-20
6 Echte Profis 2 x 6 2002-02-27
7 Eine Liebe von Jan 2 x 7 2002-03-06
8 Schuld ohne Sühne 2 x 8 2002-03-20
9 Doppelleben 2 x 9 2002-03-27
10 Sport ist Mord 2 x 10 2002-04-03
Temporada n°3
Episodio n° Título Temporada x Episodio Fecha emisión (año-mes-día)
1 Liebeswahn 3 x 1 2002-09-25
2 Der Musenkuss 3 x 2 2002-10-02
3 Einsame Herzen 3 x 3 2002-10-09
4 Verliebt in einen Lehrer 3 x 4 2002-10-16
5 Der Hellseher 3 x 5 2002-10-23
6 Tödliche Kurse 3 x 6 2002-10-30
7 Verhängnisvolle Heimkehr 3 x 7 2003-01-03
8 Toten schenkt man nichts 3 x 8 2003-01-10
9 Seitensprung 3 x 9 2003-01-17
10 Die Liebesfalle 3 x 10 2003-01-24
11 Tod einer Diva 3 x 11 2003-01-31
12 Die Witwe 3 x 12 2003-02-14
13 Unter Asphalt 3 x 13 2003-02-21
14 Crash 3 x 14 2003-02-28
15 Die blinde Zeugin 3 x 15 2003-03-07
16 Gute Nachbarn 3 x 16 2003-03-14
17 Mord ist sein Hobby 3 x 17 2003-03-21
18 Das Duell 3 x 18 2003-03-28
Temporada n°4
Episodio n° Título Temporada x Episodio Fecha emisión (año-mes-día)
1 Der böse Blick 4 x 1 2003-10-17
2 Die Millionärin 4 x 2 2003-10-24
3 Tödliche Falle 4 x 3 2003-10-31
4 Das Geheimnis der Braut 4 x 4 2003-11-14
5 Benni und die Detektive 4 x 5 2003-11-21
6 Außer Kontrolle 4 x 6 2003-11-28
7 Auf der Flucht 4 x 7 2003-12-12
8 Engel der Nacht 4 x 8 2003-12-30
9 Notwehr 4 x 9 2004-01-02
10 Sansibar 4 x 10 2004-01-09
11 Heiße Ware 4 x 11 2004-01-16
12 Sein letztes Date 4 x 12 2004-01-23
13 Herrenrunde 4 x 13 2004-01-30
14 Grenzverkehr 4 x 14 2004-02-13
15 Durchgebrannt 4 x 15 2004-02-27
16 Der Auftragsmord 4 x 16 2004-03-05
17 Das Phantom 4 x 17 2004-03-12
18 Die Schlangengrube 4 x 18 2004-03-19
19 Speed 4 x 19 2004-03-26
20 Der unsichtbare Tod 4 x 20 2004-04-02
Temporada n°5
Episodio n° Título Temporada x Episodio Fecha emisión (año-mes-día)
1 Die Tote aus Riga 5 x 1 2004-12-17
2 Homejacking 5 x 2 2005-01-14
3 Bücherwahn 5 x 3 2005-01-21
4 Risiken und Nebenwirkungen 5 x 4 2005-01-28
5 Vaterliebe 5 x 5 2005-02-04
6 Die Polizistin 5 x 6 2005-02-11
7 Vermisst 5 x 7 2005-02-18
8 Topstar gesucht! 5 x 8 2005-02-25
9 Florida 5 x 9 2005-03-04
10 Made in China 5 x 10 2005-03-11
11 Abgetaucht 5 x 11 2005-03-18
12 Nervenkitzel 5 x 12 2005-09-16
13 Die Aufsteiger 5 x 13 2005-09-23
14 Liebe und Tod in Moskau 5 x 14 2005-09-30
15 Schatzsuche 5 x 15 2005-10-07
16 Musikalisches Opfer 5 x 16 2005-10-14
17 Rufmord 5 x 17 2005-10-21
18 Der menschliche Faktor 5 x 18 2005-10-28
19 Vier Zeugen und ein Todesfall 5 x 19 2005-11-04
20 Eine glückliche Familie 5 x 20 2005-11-11
21 Der Japaner 5 x 21 2005-11-18
22 Die weiße Frau 5 x 22 2005-12-02
23 Die Moorleiche 5 x 23 2005-12-09
24 Totengräber 5 x 24 2005-12-16
Temporada n°6
Episodio n° Título Temporada x Episodio Fecha emisión (año-mes-día)
1 Ehrliche Leute 6 x 1 2006-03-31
2 Auf eigene Rechnung 6 x 2 2006-04-07
3 Anonym 6 x 3 2006-04-21
4 Das Mädchen auf dem Schwebebalken 6 x 4 2006-04-28
5 Hundeleben 6 x 5 2006-05-05
6 Ausbruch 6 x 6 2006-05-12
7 Vollgas 6 x 7 2006-05-19
8 Die verschwundene Leiche 6 x 8 2006-09-29
9 Katzenfutter 6 x 9 2006-10-06
10 Seelenwanderung 6 x 10 2006-10-13
11 Mein Freund 6 x 11 2006-10-27
12 Psycho 6 x 12 2006-11-03
13 Voll Stoff 6 x 13 2006-11-10
14 Lügen und Geheimnisse 6 x 14 2006-11-17
15 Spiel auf Zeit 6 x 15 2006-12-01
16 Konkurrenten 6 x 16 2006-12-08
17 Glaubenskrieger 6 x 17 2006-12-15
18 Der Müllmann 6 x 18 2006-12-22
19 Flucht aus Santo Domingo 6 x 19 2006-12-29
20 Am Abgrund 6 x 20 2007-01-05
21 Im Schatten des Adlers 6 x 21 2007-01-12
22 Preis der Wahrheit 6 x 22 2007-01-19
Temporada n°7
Episodio n° Título Temporada x Episodio Fecha emisión (año-mes-día)
1 Der tote Nachbar 7 x 1 2007-10-24
2 Ein fragwürdiger Deal 7 x 2 2007-11-07
3 Reinen Herzens 7 x 3 2007-11-14
4 Bodyguard 7 x 4 2007-11-29
5 Happy End 7 x 5 2007-12-12
6 Die Notenwenderin 7 x 6 2008-01-11
7 Auf dem Kriegspfad 7 x 7 2008-01-18
8 Heile Welt 7 x 8 2008-01-25
9 Der Kunde 7 x 9 2008-02-15
10 Donald 7 x 10 2008-02-22
11 Der Komplize 7 x 11 2008-02-29
12 Das Pessach-Fest 7 x 12 2008-03-07
13 Hajos Geheimnis 7 x 13 2008-03-14
14 Grauzone 7 x 14 2008-03-28
15 Dienst nach Vorschrift 7 x 15 2008-04-04
16 Unerwarteter Nahschuss 7 x 16 2008-04-11
Temporada n°8
Episodio n° Título Temporada x Episodio Fecha emisión (año-mes-día)
1 Istanbul Connection 8 x 1 2008-10-03
2 Emanuela (1) 8 x 2 2008-10-10
3 Emanuela (2) 8 x 3 2008-10-17
4 Gier 8 x 4 2008-10-24
5 Bernie 8 x 5 2008-10-31
6 Maskenball 8 x 6 2008-11-07
7 Zeugen der Anklage 8 x 7 2008-11-14
8 Callgirl 8 x 8 2008-11-28
9 Zersprungene Seele 8 x 9 2008-12-05
10 Der letzte Dreck 8 x 10 2008-12-12
11 Verloren in Afrika 8 x 11 2009-01-09
12 Damenwahl 8 x 12 2009-01-16
13 Flucht ins Vergessen 8 x 13 2009-01-23
14 Leichte Beute 8 x 14 2009-01-30
15 Privatsache 8 x 15 2009-01-30
16 Web-Spion 8 x 16 2009-02-06
17 Ein neues Leben 8 x 17 2009-02-13
18 Das Erbe 8 x 18 2009-02-27
19 Herbststurm 8 x 19 2009-03-06
20 Im Fokus 8 x 20 2009-03-27
Temporada n°9
Episodio n° Título Temporada x Episodio Fecha emisión (año-mes-día)
1 Mordsache Jugendklub 9 x 1 2009-04-03
2 Tödliches Landleben 9 x 2 2009-04-10
3 Masernparty 9 x 3 2009-04-17
4 Rein-Raus-Boxer 9 x 4 2009-04-24
5 Tödlicher Fehler 9 x 5 2009-05-01
6 Klarer Kopf 9 x 6 2009-05-01
7 Harte Hand 9 x 7 2009-05-08
8 Das Netz 9 x 8 2009-05-15
9 Aysha 9 x 9 2009-05-22
10 Spuren lügen nicht 9 x 10 2009-05-29
11 Im Schafspelz 9 x 11 2009-06-05
12 The Bill - Entführung in London 9 x 12 2009-09-04
13 Das nette Mädchen 9 x 13 2009-09-11
14 Zahltag 9 x 14 2009-09-18
15 Der große Augenblick 9 x 15 2009-09-25
16 Der kalte Tod 9 x 16 2009-10-02
17 Blutsbande 9 x 17 2009-10-16
18 Wettlauf mit dem Tod 9 x 18 2009-10-23
19 Pest und Cholera 9 x 19 2009-10-30
Temporada n°10
Episodio n° Título Temporada x Episodio Fecha emisión (año-mes-día)
1 Terminal A 10 x 1 2010-01-15
2 Déjà-vu 10 x 2 2010-01-22
3 Leipzig ohne Saft 10 x 3 2010-01-29
4 Silly - Tod im Konzert 10 x 4 2010-02-05
5 Die Hand Gottes 10 x 5 2010-02-19
6 Hannahs Geständnis 10 x 6 2010-02-26
7 Familiensache 10 x 7 2010-03-05
8 Flaschensammler 10 x 8 2010-03-12
9 Das Geisterhaus 10 x 9 2010-03-19
10 Ganz nah dran 10 x 10 2010-03-26
11 Das Schwein 10 x 11 2010-09-24
12 Fehler im System 10 x 12 2010-10-01
13 Luftnummer 10 x 13 2010-10-15
14 Tod per Post 10 x 14 2010-10-22
15 Die Hand 10 x 15 2010-10-29
16 Mord am Telefon 10 x 16 2010-11-05
17 Fragen der Ehre 10 x 17 2010-11-12
18 Swinging Leipzig 10 x 18 2010-11-19
19 Totes Kapital 10 x 19 2010-11-26
20 Girls, Girls, Girls 10 x 20 2010-12-03
21 Der Aufstand 10 x 21 2010-12-10
22 High Noon 10 x 22 2010-12-17
23 Gefangen (1) 10 x 23 2011-01-07
24 Gefangen (2) 10 x 24 2011-01-14
25 Hexenschuss 10 x 25 2011-01-21
26 Quarantäne 10 x 26 2011-01-28
27 Abgelenkt 10 x 27 2011-02-04
28 Letzter Abend DDR 10 x 28 2011-02-11
29 Wut im Bauch 10 x 29 2011-02-18
30 Schlecht beraten 10 x 30 2011-02-25
31 Kriegstage 10 x 31 2011-03-04
32 Niedrige Beweggründe 10 x 32 2011-03-04
33 Geister 10 x 33 2011-03-11
Temporada n°11
Episodio n° Título Temporada x Episodio Fecha emisión (año-mes-día)
1 Im Schattenreich 11 x 1 2011-10-14
2 Vater, Mutter, Kind 11 x 2 2011-10-21
3 Das Ultimatum 11 x 3 2011-10-28
4 Hajos letzter Fall 11 x 4 2011-11-04
5 Der Fall Gojko Mitic 11 x 5 2011-11-18
6 Das Mädchen im Park 11 x 6 2011-11-25
7 Mission to Mars 11 x 7 2011-12-02
8 Gottes Zoo ist groß 11 x 8 2011-12-09
9 Feuerteufel 11 x 9 2011-12-16
10 Die schwarze Witwe 11 x 10 2011-12-30
11 Rollenspiel 11 x 11 2012-01-06
12 Junggesellinnenabschied 11 x 12 2012-01-13
13 Spiel, Satz, Tod 11 x 13 2012-01-20
14 Ans Messer geliefert 11 x 14 2012-01-20
15 Ich bin dann mal weg 11 x 15 2012-01-27
16 Clear 11 x 16 2012-02-03
17 Kind in Angst 11 x 17 2012-02-10
18 Fightclub 11 x 18 2012-02-24
19 Auge um Auge 11 x 19 2012-03-02
20 Frischfleisch 11 x 20 2012-03-09
21 Stilbruch 11 x 21 2012-03-16
22 Die Tote im Wald (1) 11 x 22 2012-03-23
23 Die Tote im Wald (2) 11 x 23 2012-03-30
Temporada n°12
Episodio n° Título Temporada x Episodio Fecha emisión (año-mes-día)
1 Die Verurteilten 12 x 1 2012-11-16
2 Filmriss 12 x 2 2012-11-23
3 Tod eines Lehrers 12 x 3 2012-11-30
4 Leipzig kloppt 12 x 4 2012-12-07
5 Angst 12 x 5 2012-12-14
6 Getrieben (1) 12 x 6 2012-12-21
7 Getrieben (2) 12 x 7 2012-12-28
8 Das Monster 12 x 8 2013-01-04
9 Haus am See 12 x 9 2013-01-11
10 Wohlfühl GmbH 12 x 10 2013-01-11
11 Elternabend 12 x 11 2013-01-18
12 Preis der Freiheit 12 x 12 2013-01-18
13 Gefrorenes Blut 12 x 13 2013-01-25
14 Graf Porno 12 x 14 2013-02-01
15 Teufel im Himmelreich 12 x 15 2013-02-08
16 Einer zahlt immer 12 x 16 2013-02-08
17 Das zweite Leben 12 x 17 2013-02-15
18 Wahre Liebe 12 x 18 2013-02-22
19 Das letzte Lied 12 x 19 2013-03-01
20 Wir sind nicht allein 12 x 20 2013-03-08
21 Der Sumpf 12 x 21 2013-03-15
22 Eiszeit 12 x 22 2013-03-22
Temporada n°13
Episodio n° Título Temporada x Episodio Fecha emisión (año-mes-día)
1 Der Klotz 13 x 1 2013-10-25
2 Shopping 13 x 2 2013-11-01
3 Dornröschen 13 x 3 2013-11-08
4 Schuldenschnitt 13 x 4 2013-11-15
5 Verzweiflung 13 x 5 2013-11-22
6 Mundtot 13 x 6 2013-12-06
7 Der Schmetterling 13 x 7 2013-12-13
8 Klassenclown 13 x 8 2013-12-20
9 Messezeiten 13 x 9 2013-12-27
10 Letzter Wille 13 x 10 2013-12-27
11 Der Zobel 13 x 11 2014-01-03
12 Lucy 13 x 12 2014-01-10
13 Irre 13 x 13 2014-01-10
14 Rossis Fall 13 x 14 2014-01-17
15 Der alte Freund 13 x 15 2014-01-24
16 Das gläserne Opfer 13 x 16 2014-01-24
17 Die Müllbrüder 13 x 17 2014-01-31
18 Letzte Wahrheit 13 x 18 2014-02-07
19 Abgestürzt 13 x 19 2014-02-14
20 Kontrollverlust 13 x 20 2014-02-21
Temporada n°14
Episodio n° Título Temporada x Episodio Fecha emisión (año-mes-día)
1 Zwei Schwestern 14 x 1 2014-09-19
2 Was nicht sein darf 14 x 2 2014-09-26
3 Besessen 14 x 3 2014-10-03
4 Allein gegen die Mafia 14 x 4 2014-10-10
5 Mister Green 14 x 5 2014-10-17
6 Made in Bangladesh 14 x 6 2014-10-24
7 Dumm gelaufen 14 x 7 2014-10-31
8 Der verlorene Sohn 14 x 8 2014-11-07
9 Ausflug mit Mila 14 x 9 2014-11-14
10 Der einzige Zeuge 14 x 10 2014-11-21
11 Kleine Geheimnisse 14 x 11 2014-11-28
12 Wahrheit ist ein scharfes Schwert 14 x 12 2014-12-12
13 Kranke Gier 14 x 13 2014-12-19
14 Lösegeld 14 x 14 2015-01-09
15 Spielverderber 14 x 15 2015-01-16
16 Doktor Tod 14 x 16 2015-01-16
17 Schuss durch die Tür 14 x 17 2015-01-23
18 Bewegliche Ziele 14 x 18 2015-01-30
19 Sein oder Nichtsein 14 x 19 2015-02-06
20 Johannes 14 x 20 2015-02-13
21 Recht und Gerechtigkeit 14 x 21 2015-02-13
Temporada n°15
Episodio n° Título Temporada x Episodio Fecha emisión (año-mes-día)
1 Manga-Mädchen 15 x 1 2015-10-02
2 Sprengstoff 15 x 2 2015-10-09
3 Aus bestem Hause 15 x 3 2015-10-16
4 Lügen 15 x 4 2015-10-23
5 Tapetenwechsel 15 x 5 2015-10-30
6 Online-Girl 15 x 6 2015-11-06
7 Wem gehört die Stadt 15 x 7 2015-11-13
8 Erlösung 15 x 8 2015-11-20
9 Töchter und Söhne 15 x 9 2015-11-27
10 Verrat 15 x 10 2015-12-04
11 Der dunkle Feind 15 x 11 2015-12-11
12 Doppelmord 15 x 12 2015-12-18
13 Toter Mann 15 x 13 2016-01-08
14 Mann ohne Gedächtnis 15 x 14 2016-01-15
15 Der Deich 15 x 15 2016-01-15
16 Linie 131 15 x 16 2016-01-22
17 Skater-Träume 15 x 17 2016-01-22
18 Hallo Sexy! 15 x 18 2016-01-29
19 Bilder im Kopf 15 x 19 2016-02-12
20 Lucky Punch 15 x 20 2016-02-19
Temporada n°16
Episodio n° Título Temporada x Episodio Fecha emisión (año-mes-día)
1 Wunschkind 16 x 1 2016-09-16
2 Beste Freundin 16 x 2 2016-09-23
3 Undercover (1) 16 x 3 2016-09-30
4 Undercover (2) 16 x 4 2016-10-07
5 Gestohlenes Leben 16 x 5 2016-10-14
6 Harte Jungs 16 x 6 2016-10-21
7 Schutzlos 16 x 7 2016-10-28
8 Heimatlos 16 x 8 2016-11-04
9 Vermisstes Kind 16 x 9 2016-11-11
10 Tod eines Kollegen 16 x 10 2016-11-11
11 Not-OP 16 x 11 2016-11-18
12 Horrorhaus 16 x 12 2016-11-25
13 Väter 16 x 13 2016-12-02
14 Neues Leben 16 x 14 2016-12-09
15 Kein Platz für Moral 16 x 15 2016-12-16
16 Der Kanal 16 x 16 2016-12-23
17 Der Strahl 16 x 17 2016-12-30
18 Wer Wind sät 16 x 18 2017-01-06
19 Aus der Hölle 16 x 19 2017-01-13
20 Aus der Deckung 16 x 20 2017-01-20
21 Ein Fall für Rettig 16 x 21 2017-01-20
22 Der Wert des Lebens 16 x 22 2017-01-27
23 Frankenstein 16 x 23 2017-02-03
24 Endstation Hostel 16 x 24 2017-02-10
25 Einmal im Leben 16 x 25 2017-02-17
26 Chefsache 16 x 26 2017-02-24
Temporada n°17
Episodio n° Título Temporada x Episodio Fecha emisión (año-mes-día)
1 Der letzte Fall 17 x 1 2017-10-13
2 Dienstschluss 17 x 2 2017-10-20
3 Der einzige Ausweg 17 x 3 2017-10-27
4 Das genetische Limit 17 x 4 2017-11-03
5 Der kleine Zeuge 17 x 5 2017-11-17
6 Full House 17 x 6 2017-11-24
7 Spurlos verschwunden 17 x 7 2017-12-01
8 Die Brücke 17 x 8 2017-12-08
9 Vaterliebe 17 x 9 2017-12-22
10 Einsam 17 x 10 2017-12-29
11 Janika 17 x 11 2018-01-05
12 Der Sohn 17 x 12 2018-01-19
13 Toy Boy 17 x 13 2018-01-19
14 Aus Liebe 17 x 14 2018-01-26
15 Missing in Action 17 x 15 2018-02-02
16 Blinde Liebe 17 x 16 2018-02-16
Temporada n°18
Episodio n° Título Temporada x Episodio Fecha emisión (año-mes-día)
1 Blackout 18 x 1 2018-09-14
2 Falsche Hoffnung 18 x 2 2018-09-21
3 Gefährliches Vorbild 18 x 3 2018-09-28
4 Nie genug 18 x 4 2018-10-05
5 Zerbrochen 18 x 5 2018-10-12
6 Nein heißt nein 18 x 6 2018-10-19
7 Stich ins Herz 18 x 7 2018-10-26
8 Der Schattenmann 18 x 8 2018-11-02
9 Der Fall Wendt 18 x 9 2018-11-09
10 Hinter verschlossenen Türen 18 x 10 2018-11-16
11 Goldkind 18 x 11 2018-11-23
12 Die Intrige 18 x 12 2018-11-30
13 Das Chinesische Licht 18 x 13 2018-12-07
14 Die falsche Muse 18 x 14 2018-12-14
15 Das Vogelmädchen 18 x 15 2018-12-28
16 Absturz 18 x 16 2019-01-04
17 Mein Kind 18 x 17 2019-01-11
18 Nackt 18 x 18 2019-01-25
19 Bewährungsprobe 18 x 19 2019-02-01
20 Ranya 18 x 20 2019-02-08
21 Tief im Herzen 18 x 21 2019-02-15
22 Verzockt 18 x 22 2019-02-22
Temporada n°19
Episodio n° Título Temporada x Episodio Fecha emisión (año-mes-día)
1 Familienteufel 19 x 1 2019-10-18
2 Der Mann, der zwei Bier bestellte 19 x 2 2019-10-25
3 Mord im Klassenzimmer 19 x 3 2019-11-01
4 Crystal 19 x 4 2019-11-15
5 Trompetenbauer 19 x 5 2019-11-22
6 Sehnsucht 19 x 6 2019-11-29
7 Connewitz hilft 19 x 7 2019-12-06
8 Die Königin vom Schwanenteich 19 x 8 2019-12-13
9 Denn sie wissen nicht, was sie tun 19 x 9 2019-12-20
10 Zur Goldenen Jutta 19 x 10 2019-12-20
11 Frau Rossi 19 x 11 2019-12-27
12 Im Auge des Gesetzes 19 x 12 2020-01-03
13 Ein anständiges Leben 19 x 13 2020-01-10
14 Family Business 19 x 14 2020-01-17
15 Einmal um die ganze Welt 19 x 15 2020-01-24
16 Vandalengold 19 x 16 2020-01-31
17 Cold Case 19 x 17 2020-02-07
18 Vom Himmel hoch 19 x 18 2020-02-14
19 Dr. Anwar 19 x 19 2020-02-21
20 Der Rattenfänger 19 x 20 2020-02-28
21 Dem Himmel so nah 19 x 21 2020-03-06
22 Cold Kenny 19 x 22 2020-03-13
23 Zwangsadoption 19 x 23 2020-03-20
24 Taschengeld 19 x 24 2020-03-27
comments powered by Disqus